sensor_id;sensor_type;location;lat;lon;timestamp;P1;durP1;ratioP1;P2;durP2;ratioP2
67108;SDS011;54027;50.786;7.058;2024-01-15T00:01:11;25.08;;;12.38;;
67108;SDS011;54027;50.786;7.058;2024-01-15T00:03:37;27.98;;;11.55;;
67108;SDS011;54027;50.786;7.058;2024-01-15T00:06:02;35.28;;;13.07;;
67108;SDS011;54027;50.786;7.058;2024-01-15T00:08:28;28.30;;;11.80;;
67108;SDS011;54027;50.786;7.058;2024-01-15T00:10:53;28.05;;;12.43;;
67108;SDS011;54027;50.786;7.058;2024-01-15T00:13:19;26.45;;;11.98;;
67108;SDS011;54027;50.786;7.058;2024-01-15T00:15:44;23.38;;;11.23;;
67108;SDS011;54027;50.786;7.058;2024-01-15T00:18:10;28.17;;;11.43;;
67108;SDS011;54027;50.786;7.058;2024-01-15T00:20:35;24.25;;;10.98;;
67108;SDS011;54027;50.786;7.058;2024-01-15T00:23:00;29.10;;;12.63;;
67108;SDS011;54027;50.786;7.058;2024-01-15T00:25:26;24.85;;;11.30;;
67108;SDS011;54027;50.786;7.058;2024-01-15T00:27:51;23.63;;;11.02;;
67108;SDS011;54027;50.786;7.058;2024-01-15T00:30:17;29.98;;;12.30;;
67108;SDS011;54027;50.786;7.058;2024-01-15T00:32:42;32.08;;;13.40;;
67108;SDS011;54027;50.786;7.058;2024-01-15T00:35:08;27.13;;;11.93;;
67108;SDS011;54027;50.786;7.058;2024-01-15T00:37:33;32.10;;;12.93;;
67108;SDS011;54027;50.786;7.058;2024-01-15T00:39:59;28.13;;;12.55;;
67108;SDS011;54027;50.786;7.058;2024-01-15T00:42:24;27.95;;;12.02;;
67108;SDS011;54027;50.786;7.058;2024-01-15T00:44:49;25.88;;;12.02;;
67108;SDS011;54027;50.786;7.058;2024-01-15T00:47:15;29.85;;;13.20;;
67108;SDS011;54027;50.786;7.058;2024-01-15T00:49:40;33.97;;;14.23;;
67108;SDS011;54027;50.786;7.058;2024-01-15T00:52:06;20.45;;;10.93;;
67108;SDS011;54027;50.786;7.058;2024-01-15T00:54:31;27.88;;;12.35;;
67108;SDS011;54027;50.786;7.058;2024-01-15T00:56:56;32.35;;;13.82;;
67108;SDS011;54027;50.786;7.058;2024-01-15T00:59:22;31.52;;;12.88;;
67108;SDS011;54027;50.786;7.058;2024-01-15T01:01:47;27.77;;;12.13;;
67108;SDS011;54027;50.786;7.058;2024-01-15T01:04:12;30.63;;;12.90;;
67108;SDS011;54027;50.786;7.058;2024-01-15T01:06:38;30.70;;;12.05;;
67108;SDS011;54027;50.786;7.058;2024-01-15T01:09:04;27.13;;;12.40;;
67108;SDS011;54027;50.786;7.058;2024-01-15T01:11:30;31.45;;;12.45;;
67108;SDS011;54027;50.786;7.058;2024-01-15T01:13:55;27.00;;;12.55;;
67108;SDS011;54027;50.786;7.058;2024-01-15T01:16:21;38.00;;;13.07;;
67108;SDS011;54027;50.786;7.058;2024-01-15T01:18:47;32.03;;;13.23;;
67108;SDS011;54027;50.786;7.058;2024-01-15T01:21:12;29.70;;;12.20;;
67108;SDS011;54027;50.786;7.058;2024-01-15T01:23:38;28.45;;;12.05;;
67108;SDS011;54027;50.786;7.058;2024-01-15T01:26:03;25.58;;;13.00;;
67108;SDS011;54027;50.786;7.058;2024-01-15T01:28:28;31.83;;;13.25;;
67108;SDS011;54027;50.786;7.058;2024-01-15T01:30:54;33.65;;;12.23;;
67108;SDS011;54027;50.786;7.058;2024-01-15T01:33:19;29.55;;;12.65;;
67108;SDS011;54027;50.786;7.058;2024-01-15T01:35:45;30.20;;;13.07;;
67108;SDS011;54027;50.786;7.058;2024-01-15T01:38:11;31.85;;;14.05;;
67108;SDS011;54027;50.786;7.058;2024-01-15T01:40:37;27.60;;;13.95;;
67108;SDS011;54027;50.786;7.058;2024-01-15T01:43:03;31.15;;;13.73;;
67108;SDS011;54027;50.786;7.058;2024-01-15T01:45:30;36.65;;;14.23;;
67108;SDS011;54027;50.786;7.058;2024-01-15T01:47:55;35.08;;;14.98;;
67108;SDS011;54027;50.786;7.058;2024-01-15T01:50:21;31.92;;;15.93;;
67108;SDS011;54027;50.786;7.058;2024-01-15T01:52:47;37.63;;;16.50;;
67108;SDS011;54027;50.786;7.058;2024-01-15T01:55:13;35.28;;;15.32;;
67108;SDS011;54027;50.786;7.058;2024-01-15T01:57:39;39.63;;;15.82;;
67108;SDS011;54027;50.786;7.058;2024-01-15T02:00:06;40.20;;;16.35;;
67108;SDS011;54027;50.786;7.058;2024-01-15T02:02:32;40.33;;;17.73;;
67108;SDS011;54027;50.786;7.058;2024-01-15T02:04:58;41.50;;;17.33;;
67108;SDS011;54027;50.786;7.058;2024-01-15T02:07:24;37.15;;;16.05;;
67108;SDS011;54027;50.786;7.058;2024-01-15T02:09:50;36.50;;;15.73;;
67108;SDS011;54027;50.786;7.058;2024-01-15T02:12:15;37.60;;;16.60;;
67108;SDS011;54027;50.786;7.058;2024-01-15T02:14:41;36.17;;;15.65;;
67108;SDS011;54027;50.786;7.058;2024-01-15T02:17:07;39.13;;;15.20;;
67108;SDS011;54027;50.786;7.058;2024-01-15T02:19:32;38.80;;;16.38;;
67108;SDS011;54027;50.786;7.058;2024-01-15T02:21:57;35.08;;;16.42;;
67108;SDS011;54027;50.786;7.058;2024-01-15T02:24:23;37.50;;;15.93;;
67108;SDS011;54027;50.786;7.058;2024-01-15T02:26:48;41.85;;;16.85;;
67108;SDS011;54027;50.786;7.058;2024-01-15T02:29:14;35.53;;;16.88;;
67108;SDS011;54027;50.786;7.058;2024-01-15T02:31:40;37.88;;;15.43;;
67108;SDS011;54027;50.786;7.058;2024-01-15T02:34:06;33.53;;;15.30;;
67108;SDS011;54027;50.786;7.058;2024-01-15T02:36:31;35.35;;;15.93;;
67108;SDS011;54027;50.786;7.058;2024-01-15T02:38:57;36.17;;;15.35;;
67108;SDS011;54027;50.786;7.058;2024-01-15T02:41:22;32.95;;;15.60;;
67108;SDS011;54027;50.786;7.058;2024-01-15T02:43:48;40.50;;;17.30;;
67108;SDS011;54027;50.786;7.058;2024-01-15T02:46:13;35.88;;;14.95;;
67108;SDS011;54027;50.786;7.058;2024-01-15T02:48:39;34.15;;;15.02;;
67108;SDS011;54027;50.786;7.058;2024-01-15T02:51:05;32.85;;;15.00;;
67108;SDS011;54027;50.786;7.058;2024-01-15T02:53:30;39.25;;;16.90;;
67108;SDS011;54027;50.786;7.058;2024-01-15T02:55:55;35.17;;;15.55;;
67108;SDS011;54027;50.786;7.058;2024-01-15T02:58:21;32.67;;;14.38;;
67108;SDS011;54027;50.786;7.058;2024-01-15T03:00:47;35.42;;;16.33;;
67108;SDS011;54027;50.786;7.058;2024-01-15T03:03:12;32.00;;;15.55;;
67108;SDS011;54027;50.786;7.058;2024-01-15T03:05:38;35.03;;;15.27;;
67108;SDS011;54027;50.786;7.058;2024-01-15T03:08:03;31.52;;;13.85;;
67108;SDS011;54027;50.786;7.058;2024-01-15T03:10:29;32.17;;;15.52;;
67108;SDS011;54027;50.786;7.058;2024-01-15T03:12:54;37.80;;;15.48;;
67108;SDS011;54027;50.786;7.058;2024-01-15T03:15:20;35.00;;;14.45;;
67108;SDS011;54027;50.786;7.058;2024-01-15T03:17:45;29.52;;;14.27;;
67108;SDS011;54027;50.786;7.058;2024-01-15T03:20:11;30.50;;;14.10;;
67108;SDS011;54027;50.786;7.058;2024-01-15T03:22:37;30.65;;;14.95;;
67108;SDS011;54027;50.786;7.058;2024-01-15T03:25:03;30.60;;;13.60;;
67108;SDS011;54027;50.786;7.058;2024-01-15T03:27:29;33.60;;;14.00;;
67108;SDS011;54027;50.786;7.058;2024-01-15T03:29:54;30.17;;;13.85;;
67108;SDS011;54027;50.786;7.058;2024-01-15T03:32:20;29.63;;;14.40;;
67108;SDS011;54027;50.786;7.058;2024-01-15T03:34:45;28.27;;;13.88;;
67108;SDS011;54027;50.786;7.058;2024-01-15T03:37:12;30.65;;;13.73;;
67108;SDS011;54027;50.786;7.058;2024-01-15T03:39:38;25.17;;;12.73;;
67108;SDS011;54027;50.786;7.058;2024-01-15T03:42:03;26.33;;;13.07;;
67108;SDS011;54027;50.786;7.058;2024-01-15T03:44:29;27.08;;;12.88;;
67108;SDS011;54027;50.786;7.058;2024-01-15T03:46:54;25.83;;;11.45;;
67108;SDS011;54027;50.786;7.058;2024-01-15T03:49:20;26.00;;;12.25;;
67108;SDS011;54027;50.786;7.058;2024-01-15T03:51:45;29.80;;;14.00;;
67108;SDS011;54027;50.786;7.058;2024-01-15T03:54:11;27.88;;;13.35;;
67108;SDS011;54027;50.786;7.058;2024-01-15T03:56:36;26.17;;;13.75;;
67108;SDS011;54027;50.786;7.058;2024-01-15T03:59:01;27.77;;;13.75;;
67108;SDS011;54027;50.786;7.058;2024-01-15T04:01:27;29.58;;;14.30;;
67108;SDS011;54027;50.786;7.058;2024-01-15T04:03:52;33.35;;;14.65;;
67108;SDS011;54027;50.786;7.058;2024-01-15T04:06:18;30.60;;;13.85;;
67108;SDS011;54027;50.786;7.058;2024-01-15T04:08:43;30.00;;;14.23;;
67108;SDS011;54027;50.786;7.058;2024-01-15T04:11:09;28.25;;;13.15;;
67108;SDS011;54027;50.786;7.058;2024-01-15T04:13:34;32.30;;;14.95;;
67108;SDS011;54027;50.786;7.058;2024-01-15T04:16:00;29.13;;;14.55;;
67108;SDS011;54027;50.786;7.058;2024-01-15T04:18:25;31.63;;;14.98;;
67108;SDS011;54027;50.786;7.058;2024-01-15T04:20:51;33.85;;;15.30;;
67108;SDS011;54027;50.786;7.058;2024-01-15T04:23:16;35.92;;;14.65;;
67108;SDS011;54027;50.786;7.058;2024-01-15T04:25:42;33.58;;;14.52;;
67108;SDS011;54027;50.786;7.058;2024-01-15T04:28:08;29.00;;;14.95;;
67108;SDS011;54027;50.786;7.058;2024-01-15T04:30:34;27.77;;;13.07;;
67108;SDS011;54027;50.786;7.058;2024-01-15T04:33:00;26.48;;;13.70;;
67108;SDS011;54027;50.786;7.058;2024-01-15T04:35:25;27.38;;;12.88;;
67108;SDS011;54027;50.786;7.058;2024-01-15T04:37:50;30.05;;;13.57;;
67108;SDS011;54027;50.786;7.058;2024-01-15T04:40:16;32.53;;;12.43;;
67108;SDS011;54027;50.786;7.058;2024-01-15T04:42:41;24.88;;;12.18;;
67108;SDS011;54027;50.786;7.058;2024-01-15T04:45:06;29.05;;;12.60;;
67108;SDS011;54027;50.786;7.058;2024-01-15T04:47:32;28.88;;;12.30;;
67108;SDS011;54027;50.786;7.058;2024-01-15T04:49:58;20.08;;;10.68;;
67108;SDS011;54027;50.786;7.058;2024-01-15T04:52:23;26.48;;;12.93;;
67108;SDS011;54027;50.786;7.058;2024-01-15T04:54:48;22.30;;;10.60;;
67108;SDS011;54027;50.786;7.058;2024-01-15T04:57:14;25.52;;;11.23;;
67108;SDS011;54027;50.786;7.058;2024-01-15T04:59:40;21.85;;;10.90;;
67108;SDS011;54027;50.786;7.058;2024-01-15T05:02:05;20.58;;;10.27;;
67108;SDS011;54027;50.786;7.058;2024-01-15T05:04:31;19.27;;;10.80;;
67108;SDS011;54027;50.786;7.058;2024-01-15T05:06:57;21.67;;;10.43;;
67108;SDS011;54027;50.786;7.058;2024-01-15T05:09:23;22.80;;;10.93;;
67108;SDS011;54027;50.786;7.058;2024-01-15T05:11:48;22.58;;;9.98;;
67108;SDS011;54027;50.786;7.058;2024-01-15T05:14:14;21.77;;;10.02;;
67108;SDS011;54027;50.786;7.058;2024-01-15T05:16:39;18.45;;;9.13;;
67108;SDS011;54027;50.786;7.058;2024-01-15T05:19:11;19.20;;;10.88;;
67108;SDS011;54027;50.786;7.058;2024-01-15T05:21:36;20.80;;;10.05;;
67108;SDS011;54027;50.786;7.058;2024-01-15T05:24:02;22.77;;;10.55;;
67108;SDS011;54027;50.786;7.058;2024-01-15T05:26:27;22.40;;;10.73;;
67108;SDS011;54027;50.786;7.058;2024-01-15T05:28:53;24.42;;;11.15;;
67108;SDS011;54027;50.786;7.058;2024-01-15T05:31:18;20.65;;;10.50;;
67108;SDS011;54027;50.786;7.058;2024-01-15T05:33:43;24.05;;;10.73;;
67108;SDS011;54027;50.786;7.058;2024-01-15T05:36:09;20.42;;;10.90;;
67108;SDS011;54027;50.786;7.058;2024-01-15T05:38:34;22.50;;;12.00;;
67108;SDS011;54027;50.786;7.058;2024-01-15T05:41:00;24.30;;;11.25;;
67108;SDS011;54027;50.786;7.058;2024-01-15T05:43:25;23.50;;;11.25;;
67108;SDS011;54027;50.786;7.058;2024-01-15T05:45:50;25.90;;;11.85;;
67108;SDS011;54027;50.786;7.058;2024-01-15T05:48:16;22.92;;;11.25;;
67108;SDS011;54027;50.786;7.058;2024-01-15T05:50:41;24.10;;;12.40;;
67108;SDS011;54027;50.786;7.058;2024-01-15T05:53:07;23.02;;;11.43;;
67108;SDS011;54027;50.786;7.058;2024-01-15T05:55:32;26.63;;;12.75;;
67108;SDS011;54027;50.786;7.058;2024-01-15T05:57:57;26.38;;;12.43;;
67108;SDS011;54027;50.786;7.058;2024-01-15T06:00:23;28.80;;;12.73;;
67108;SDS011;54027;50.786;7.058;2024-01-15T06:02:48;24.17;;;12.40;;
67108;SDS011;54027;50.786;7.058;2024-01-15T06:05:14;26.10;;;11.82;;
67108;SDS011;54027;50.786;7.058;2024-01-15T06:07:39;21.80;;;11.35;;
67108;SDS011;54027;50.786;7.058;2024-01-15T06:10:05;20.90;;;10.60;;
67108;SDS011;54027;50.786;7.058;2024-01-15T06:12:31;24.95;;;10.90;;
67108;SDS011;54027;50.786;7.058;2024-01-15T06:14:57;22.15;;;11.65;;
67108;SDS011;54027;50.786;7.058;2024-01-15T06:17:23;27.90;;;12.63;;
67108;SDS011;54027;50.786;7.058;2024-01-15T06:19:48;20.55;;;11.85;;
67108;SDS011;54027;50.786;7.058;2024-01-15T06:22:13;20.88;;;12.75;;
67108;SDS011;54027;50.786;7.058;2024-01-15T06:24:39;18.02;;;10.95;;
67108;SDS011;54027;50.786;7.058;2024-01-15T06:27:04;20.67;;;10.80;;
67108;SDS011;54027;50.786;7.058;2024-01-15T06:29:30;21.60;;;11.18;;
67108;SDS011;54027;50.786;7.058;2024-01-15T06:31:55;22.65;;;11.95;;
67108;SDS011;54027;50.786;7.058;2024-01-15T06:34:21;23.20;;;11.90;;
67108;SDS011;54027;50.786;7.058;2024-01-15T06:36:46;24.45;;;12.18;;
67108;SDS011;54027;50.786;7.058;2024-01-15T06:39:12;24.88;;;11.77;;
67108;SDS011;54027;50.786;7.058;2024-01-15T06:41:37;24.63;;;12.82;;
67108;SDS011;54027;50.786;7.058;2024-01-15T06:44:09;29.98;;;12.20;;
67108;SDS011;54027;50.786;7.058;2024-01-15T06:46:36;23.67;;;12.07;;
67108;SDS011;54027;50.786;7.058;2024-01-15T06:49:01;24.42;;;12.48;;
67108;SDS011;54027;50.786;7.058;2024-01-15T06:51:27;24.10;;;12.10;;
67108;SDS011;54027;50.786;7.058;2024-01-15T06:53:52;24.63;;;12.30;;
67108;SDS011;54027;50.786;7.058;2024-01-15T06:56:17;24.98;;;13.00;;
67108;SDS011;54027;50.786;7.058;2024-01-15T06:58:43;26.42;;;12.68;;
67108;SDS011;54027;50.786;7.058;2024-01-15T07:01:08;26.23;;;12.55;;
67108;SDS011;54027;50.786;7.058;2024-01-15T07:03:34;28.23;;;13.85;;
67108;SDS011;54027;50.786;7.058;2024-01-15T07:05:59;27.50;;;13.35;;
67108;SDS011;54027;50.786;7.058;2024-01-15T07:08:25;26.02;;;13.55;;
67108;SDS011;54027;50.786;7.058;2024-01-15T07:10:50;25.38;;;13.20;;
67108;SDS011;54027;50.786;7.058;2024-01-15T07:13:15;27.27;;;13.70;;
67108;SDS011;54027;50.786;7.058;2024-01-15T07:15:41;30.67;;;13.23;;
67108;SDS011;54027;50.786;7.058;2024-01-15T07:18:06;25.00;;;14.07;;
67108;SDS011;54027;50.786;7.058;2024-01-15T07:20:32;33.70;;;13.82;;
67108;SDS011;54027;50.786;7.058;2024-01-15T07:22:57;29.52;;;14.38;;
67108;SDS011;54027;50.786;7.058;2024-01-15T07:25:22;25.52;;;13.23;;
67108;SDS011;54027;50.786;7.058;2024-01-15T07:27:48;31.00;;;13.77;;
67108;SDS011;54027;50.786;7.058;2024-01-15T07:30:13;30.65;;;13.60;;
67108;SDS011;54027;50.786;7.058;2024-01-15T07:32:39;28.08;;;12.98;;
67108;SDS011;54027;50.786;7.058;2024-01-15T07:35:05;26.80;;;13.38;;
67108;SDS011;54027;50.786;7.058;2024-01-15T07:37:31;32.00;;;14.52;;
67108;SDS011;54027;50.786;7.058;2024-01-15T07:39:56;29.10;;;13.40;;
67108;SDS011;54027;50.786;7.058;2024-01-15T07:42:22;25.77;;;12.15;;
67108;SDS011;54027;50.786;7.058;2024-01-15T07:44:47;26.42;;;13.27;;
67108;SDS011;54027;50.786;7.058;2024-01-15T07:47:12;25.95;;;12.85;;
67108;SDS011;54027;50.786;7.058;2024-01-15T07:49:38;23.35;;;12.70;;
67108;SDS011;54027;50.786;7.058;2024-01-15T07:52:03;22.88;;;11.80;;
67108;SDS011;54027;50.786;7.058;2024-01-15T07:54:30;23.38;;;12.45;;
67108;SDS011;54027;50.786;7.058;2024-01-15T07:56:56;28.80;;;13.40;;
67108;SDS011;54027;50.786;7.058;2024-01-15T07:59:25;27.42;;;11.57;;
67108;SDS011;54027;50.786;7.058;2024-01-15T08:01:52;23.45;;;11.13;;
67108;SDS011;54027;50.786;7.058;2024-01-15T08:04:19;26.40;;;11.32;;
67108;SDS011;54027;50.786;7.058;2024-01-15T08:06:47;23.50;;;11.52;;
67108;SDS011;54027;50.786;7.058;2024-01-15T08:09:16;22.45;;;11.02;;
67108;SDS011;54027;50.786;7.058;2024-01-15T08:11:42;21.65;;;10.55;;
67108;SDS011;54027;50.786;7.058;2024-01-15T08:14:08;21.55;;;10.90;;
67108;SDS011;54027;50.786;7.058;2024-01-15T08:16:34;21.33;;;10.93;;
67108;SDS011;54027;50.786;7.058;2024-01-15T08:19:00;24.40;;;10.85;;
67108;SDS011;54027;50.786;7.058;2024-01-15T08:21:26;25.20;;;10.80;;
67108;SDS011;54027;50.786;7.058;2024-01-15T08:23:54;19.75;;;9.80;;
67108;SDS011;54027;50.786;7.058;2024-01-15T08:26:21;23.38;;;10.73;;
67108;SDS011;54027;50.786;7.058;2024-01-15T08:28:46;22.85;;;11.25;;
67108;SDS011;54027;50.786;7.058;2024-01-15T08:31:12;25.25;;;10.98;;
67108;SDS011;54027;50.786;7.058;2024-01-15T08:33:37;21.88;;;10.15;;
67108;SDS011;54027;50.786;7.058;2024-01-15T08:36:03;23.10;;;9.73;;
67108;SDS011;54027;50.786;7.058;2024-01-15T08:38:29;21.40;;;10.20;;
67108;SDS011;54027;50.786;7.058;2024-01-15T08:40:54;21.85;;;10.75;;
67108;SDS011;54027;50.786;7.058;2024-01-15T08:43:21;25.15;;;12.23;;
67108;SDS011;54027;50.786;7.058;2024-01-15T08:45:47;24.15;;;11.30;;
67108;SDS011;54027;50.786;7.058;2024-01-15T08:48:13;22.92;;;12.15;;
67108;SDS011;54027;50.786;7.058;2024-01-15T08:50:38;25.08;;;11.65;;
67108;SDS011;54027;50.786;7.058;2024-01-15T08:53:04;26.10;;;11.82;;
67108;SDS011;54027;50.786;7.058;2024-01-15T08:55:29;21.88;;;10.68;;
67108;SDS011;54027;50.786;7.058;2024-01-15T08:57:54;22.52;;;12.07;;
67108;SDS011;54027;50.786;7.058;2024-01-15T09:00:20;23.52;;;11.82;;
67108;SDS011;54027;50.786;7.058;2024-01-15T09:02:45;19.45;;;10.45;;
67108;SDS011;54027;50.786;7.058;2024-01-15T09:05:11;26.58;;;11.95;;
67108;SDS011;54027;50.786;7.058;2024-01-15T09:07:36;21.23;;;11.00;;
67108;SDS011;54027;50.786;7.058;2024-01-15T09:10:02;19.55;;;10.00;;
67108;SDS011;54027;50.786;7.058;2024-01-15T09:12:28;25.05;;;12.02;;
67108;SDS011;54027;50.786;7.058;2024-01-15T09:14:54;22.80;;;10.80;;
67108;SDS011;54027;50.786;7.058;2024-01-15T09:17:20;30.92;;;11.98;;
67108;SDS011;54027;50.786;7.058;2024-01-15T09:19:48;24.27;;;10.20;;
67108;SDS011;54027;50.786;7.058;2024-01-15T09:22:14;24.23;;;10.82;;
67108;SDS011;54027;50.786;7.058;2024-01-15T09:24:42;21.90;;;10.82;;
67108;SDS011;54027;50.786;7.058;2024-01-15T09:27:08;22.10;;;10.75;;
67108;SDS011;54027;50.786;7.058;2024-01-15T09:29:33;21.15;;;9.90;;
67108;SDS011;54027;50.786;7.058;2024-01-15T09:31:59;20.23;;;9.98;;
67108;SDS011;54027;50.786;7.058;2024-01-15T09:34:24;19.42;;;10.30;;
67108;SDS011;54027;50.786;7.058;2024-01-15T09:36:50;19.92;;;9.05;;
67108;SDS011;54027;50.786;7.058;2024-01-15T09:39:15;22.33;;;9.60;;
67108;SDS011;54027;50.786;7.058;2024-01-15T09:41:40;22.02;;;8.95;;
67108;SDS011;54027;50.786;7.058;2024-01-15T09:44:07;18.27;;;8.13;;
67108;SDS011;54027;50.786;7.058;2024-01-15T09:46:34;18.02;;;7.90;;
67108;SDS011;54027;50.786;7.058;2024-01-15T09:49:00;15.75;;;7.97;;
67108;SDS011;54027;50.786;7.058;2024-01-15T09:51:27;16.45;;;8.90;;
67108;SDS011;54027;50.786;7.058;2024-01-15T09:53:56;14.60;;;8.40;;
67108;SDS011;54027;50.786;7.058;2024-01-15T09:56:23;17.38;;;8.38;;
67108;SDS011;54027;50.786;7.058;2024-01-15T09:58:48;18.83;;;8.68;;
67108;SDS011;54027;50.786;7.058;2024-01-15T10:01:16;14.30;;;7.47;;
67108;SDS011;54027;50.786;7.058;2024-01-15T10:03:42;17.38;;;8.23;;
67108;SDS011;54027;50.786;7.058;2024-01-15T10:06:07;15.18;;;8.02;;
67108;SDS011;54027;50.786;7.058;2024-01-15T10:08:34;15.52;;;8.30;;
67108;SDS011;54027;50.786;7.058;2024-01-15T10:11:04;10.48;;;7.30;;
67108;SDS011;54027;50.786;7.058;2024-01-15T10:13:30;14.02;;;8.10;;
67108;SDS011;54027;50.786;7.058;2024-01-15T10:15:55;14.95;;;8.48;;
67108;SDS011;54027;50.786;7.058;2024-01-15T10:18:21;14.57;;;8.18;;
67108;SDS011;54027;50.786;7.058;2024-01-15T10:20:46;15.60;;;9.45;;
67108;SDS011;54027;50.786;7.058;2024-01-15T10:23:13;13.93;;;8.85;;
67108;SDS011;54027;50.786;7.058;2024-01-15T10:25:41;16.00;;;8.98;;
67108;SDS011;54027;50.786;7.058;2024-01-15T10:28:07;15.82;;;9.15;;
67108;SDS011;54027;50.786;7.058;2024-01-15T10:30:33;19.08;;;10.35;;
67108;SDS011;54027;50.786;7.058;2024-01-15T10:32:59;16.08;;;10.00;;
67108;SDS011;54027;50.786;7.058;2024-01-15T10:35:29;13.43;;;8.93;;
67108;SDS011;54027;50.786;7.058;2024-01-15T10:37:56;20.00;;;9.20;;
67108;SDS011;54027;50.786;7.058;2024-01-15T10:40:21;15.23;;;8.98;;
67108;SDS011;54027;50.786;7.058;2024-01-15T10:42:47;13.57;;;8.40;;
67108;SDS011;54027;50.786;7.058;2024-01-15T10:45:13;15.00;;;9.07;;
67108;SDS011;54027;50.786;7.058;2024-01-15T10:47:40;16.48;;;8.07;;
67108;SDS011;54027;50.786;7.058;2024-01-15T10:50:06;16.33;;;9.55;;
67108;SDS011;54027;50.786;7.058;2024-01-15T10:52:42;18.85;;;9.02;;
67108;SDS011;54027;50.786;7.058;2024-01-15T10:55:10;13.20;;;9.15;;
67108;SDS011;54027;50.786;7.058;2024-01-15T10:57:36;17.40;;;10.00;;
67108;SDS011;54027;50.786;7.058;2024-01-15T11:00:03;12.15;;;8.32;;
67108;SDS011;54027;50.786;7.058;2024-01-15T11:02:35;16.23;;;7.63;;
67108;SDS011;54027;50.786;7.058;2024-01-15T11:05:02;11.02;;;7.22;;
67108;SDS011;54027;50.786;7.058;2024-01-15T11:07:28;11.05;;;7.38;;
67108;SDS011;54027;50.786;7.058;2024-01-15T11:09:56;14.63;;;8.15;;
67108;SDS011;54027;50.786;7.058;2024-01-15T11:12:23;12.70;;;7.45;;
67108;SDS011;54027;50.786;7.058;2024-01-15T11:14:49;14.07;;;8.38;;
67108;SDS011;54027;50.786;7.058;2024-01-15T11:17:15;14.50;;;9.00;;
67108;SDS011;54027;50.786;7.058;2024-01-15T11:24:55;13.02;;;8.63;;
67108;SDS011;54027;50.786;7.058;2024-01-15T11:30:25;18.30;;;10.15;;
67108;SDS011;54027;50.786;7.058;2024-01-15T11:32:51;14.88;;;9.65;;
67108;SDS011;54027;50.786;7.058;2024-01-15T11:35:16;15.77;;;9.68;;
67108;SDS011;54027;50.786;7.058;2024-01-15T11:38:01;15.88;;;10.13;;
67108;SDS011;54027;50.786;7.058;2024-01-15T11:42:58;18.40;;;9.90;;
67108;SDS011;54027;50.786;7.058;2024-01-15T11:45:24;19.30;;;11.02;;
67108;SDS011;54027;50.786;7.058;2024-01-15T11:47:59;16.55;;;10.38;;
67108;SDS011;54027;50.786;7.058;2024-01-15T11:50:33;19.17;;;11.15;;
67108;SDS011;54027;50.786;7.058;2024-01-15T11:53:00;16.85;;;10.00;;
67108;SDS011;54027;50.786;7.058;2024-01-15T11:55:34;14.07;;;10.00;;
67108;SDS011;54027;50.786;7.058;2024-01-15T11:58:06;16.92;;;10.07;;
67108;SDS011;54027;50.786;7.058;2024-01-15T12:00:34;20.88;;;10.80;;
67108;SDS011;54027;50.786;7.058;2024-01-15T12:03:05;16.77;;;9.82;;
67108;SDS011;54027;50.786;7.058;2024-01-15T12:05:31;20.15;;;10.88;;
67108;SDS011;54027;50.786;7.058;2024-01-15T12:07:56;17.50;;;10.88;;
67108;SDS011;54027;50.786;7.058;2024-01-15T12:10:22;18.23;;;10.45;;
67108;SDS011;54027;50.786;7.058;2024-01-15T12:15:25;17.45;;;9.98;;
67108;SDS011;54027;50.786;7.058;2024-01-15T12:17:52;21.15;;;11.27;;
67108;SDS011;54027;50.786;7.058;2024-01-15T12:20:19;17.45;;;9.75;;
67108;SDS011;54027;50.786;7.058;2024-01-15T12:22:45;17.73;;;10.23;;
67108;SDS011;54027;50.786;7.058;2024-01-15T12:25:11;23.65;;;10.63;;
67108;SDS011;54027;50.786;7.058;2024-01-15T12:27:36;21.45;;;10.70;;
67108;SDS011;54027;50.786;7.058;2024-01-15T12:30:02;17.52;;;10.52;;
67108;SDS011;54027;50.786;7.058;2024-01-15T12:32:28;20.60;;;10.10;;
67108;SDS011;54027;50.786;7.058;2024-01-15T12:34:54;19.15;;;9.57;;
67108;SDS011;54027;50.786;7.058;2024-01-15T12:37:20;16.58;;;9.13;;
67108;SDS011;54027;50.786;7.058;2024-01-15T12:39:45;17.20;;;9.70;;
67108;SDS011;54027;50.786;7.058;2024-01-15T12:42:13;16.50;;;8.13;;
67108;SDS011;54027;50.786;7.058;2024-01-15T12:44:39;17.38;;;8.27;;
67108;SDS011;54027;50.786;7.058;2024-01-15T12:47:05;15.05;;;7.25;;
67108;SDS011;54027;50.786;7.058;2024-01-15T12:49:31;15.88;;;6.40;;
67108;SDS011;54027;50.786;7.058;2024-01-15T12:51:57;18.73;;;7.13;;
67108;SDS011;54027;50.786;7.058;2024-01-15T12:54:23;12.80;;;6.03;;
67108;SDS011;54027;50.786;7.058;2024-01-15T12:56:49;18.58;;;7.40;;
67108;SDS011;54027;50.786;7.058;2024-01-15T12:59:16;14.85;;;6.05;;
67108;SDS011;54027;50.786;7.058;2024-01-15T13:01:41;17.10;;;7.35;;
67108;SDS011;54027;50.786;7.058;2024-01-15T13:04:07;14.57;;;5.60;;
67108;SDS011;54027;50.786;7.058;2024-01-15T13:06:35;11.88;;;6.55;;
67108;SDS011;54027;50.786;7.058;2024-01-15T13:09:02;14.27;;;5.43;;
67108;SDS011;54027;50.786;7.058;2024-01-15T13:11:30;16.02;;;5.57;;
67108;SDS011;54027;50.786;7.058;2024-01-15T13:13:56;18.85;;;5.03;;
67108;SDS011;54027;50.786;7.058;2024-01-15T13:16:22;12.25;;;5.80;;
67108;SDS011;54027;50.786;7.058;2024-01-15T13:18:47;10.05;;;5.30;;
67108;SDS011;54027;50.786;7.058;2024-01-15T13:21:15;9.68;;;5.07;;
67108;SDS011;54027;50.786;7.058;2024-01-15T13:23:40;12.25;;;5.90;;
67108;SDS011;54027;50.786;7.058;2024-01-15T13:26:06;11.05;;;5.45;;
67108;SDS011;54027;50.786;7.058;2024-01-15T13:28:32;15.57;;;5.10;;
67108;SDS011;54027;50.786;7.058;2024-01-15T13:30:57;11.82;;;4.72;;
67108;SDS011;54027;50.786;7.058;2024-01-15T13:33:23;16.33;;;4.80;;
67108;SDS011;54027;50.786;7.058;2024-01-15T13:35:48;8.35;;;4.53;;
67108;SDS011;54027;50.786;7.058;2024-01-15T13:38:15;8.95;;;4.72;;
67108;SDS011;54027;50.786;7.058;2024-01-15T13:40:41;9.82;;;4.25;;
67108;SDS011;54027;50.786;7.058;2024-01-15T13:43:06;11.65;;;4.55;;
67108;SDS011;54027;50.786;7.058;2024-01-15T13:45:33;9.15;;;4.15;;
67108;SDS011;54027;50.786;7.058;2024-01-15T13:47:59;11.88;;;4.95;;
67108;SDS011;54027;50.786;7.058;2024-01-15T13:50:25;12.10;;;5.45;;
67108;SDS011;54027;50.786;7.058;2024-01-15T13:52:50;16.55;;;4.88;;
67108;SDS011;54027;50.786;7.058;2024-01-15T13:55:16;10.80;;;5.60;;
67108;SDS011;54027;50.786;7.058;2024-01-15T13:57:41;12.07;;;4.88;;
67108;SDS011;54027;50.786;7.058;2024-01-15T14:00:07;9.65;;;4.68;;
67108;SDS011;54027;50.786;7.058;2024-01-15T14:02:36;9.23;;;4.47;;
67108;SDS011;54027;50.786;7.058;2024-01-15T14:05:02;9.90;;;4.70;;
67108;SDS011;54027;50.786;7.058;2024-01-15T14:07:27;8.02;;;4.68;;
67108;SDS011;54027;50.786;7.058;2024-01-15T14:09:53;11.02;;;4.35;;
67108;SDS011;54027;50.786;7.058;2024-01-15T14:12:18;10.27;;;4.60;;
67108;SDS011;54027;50.786;7.058;2024-01-15T14:14:43;9.90;;;4.63;;
67108;SDS011;54027;50.786;7.058;2024-01-15T14:17:09;6.85;;;4.80;;
67108;SDS011;54027;50.786;7.058;2024-01-15T14:19:34;6.70;;;4.47;;
67108;SDS011;54027;50.786;7.058;2024-01-15T14:22:00;7.38;;;4.13;;
67108;SDS011;54027;50.786;7.058;2024-01-15T14:24:26;10.20;;;4.32;;
67108;SDS011;54027;50.786;7.058;2024-01-15T14:26:51;8.77;;;4.13;;
67108;SDS011;54027;50.786;7.058;2024-01-15T14:29:16;6.93;;;4.15;;
67108;SDS011;54027;50.786;7.058;2024-01-15T14:31:45;6.20;;;3.55;;